KCLT/CLT METAR and TAF weather

Enter ICAO airport designator
Station Type Date Time Source
KCLT METAR 2019/08/22 01:52 UTC NOAA

KCLT 220152Z 00000KT 10SM SCT150 BKN250 26/21 A3005 RMK AO2 SLP165 T02610211


Station Type Date Time Source
KCLT Decoded METAR 2019/08/22 01:52 UTC NOAA

Station name not available
Aug 21, 2019 - 09:52 PM EDT / 2019.08.22 0152 UTC
Wind: Calm:0
Visibility: 10 mile(s):0
Sky conditions: mostly cloudy
Temperature: 79.0 F (26.1 C)
Dew Point: 70.0 F (21.1 C)
Relative Humidity: 73%
Pressure (altimeter): 30.05 in. Hg (1017 hPa)
ob: KCLT 220152Z 00000KT 10SM SCT150 BKN250 26/21 A3005 RMK AO2 SLP165 T02610211
cycle: 2

Station Type Date Time Source
KCLT TAF 2019/08/22 02:58 UTC NOAA

TAF
AMD KCLT 220156Z 2202/2306 22004KT P6SM SCT200
FM221700 23010KT P6SM VCSH SCT050 BKN100 PROB30 2218/2224 4SM TSRA BKN050CB

Example: see airport list